createdAt,value
2023-01-13T00:00:09.123Z,99122.06
2023-01-13T00:00:21.543Z,99116.50
2023-01-13T00:00:33.635Z,99085.41
2023-01-13T00:00:45.872Z,99112.00
2023-01-13T00:00:58.192Z,99124.47
2023-01-13T00:01:15.945Z,99116.66
2023-01-13T00:01:28.915Z,99111.44
2023-01-13T00:01:40.921Z,99118.53
2023-01-13T00:01:52.800Z,99121.22
2023-01-13T00:02:04.796Z,99113.34
2023-01-13T00:02:17.167Z,99118.81
2023-01-13T00:02:29.890Z,99118.69
2023-01-13T00:02:41.960Z,99109.41
2023-01-13T00:02:53.879Z,99116.94
2023-01-13T00:03:05.987Z,99115.22
2023-01-13T00:03:17.954Z,99119.38
2023-01-13T00:03:29.975Z,99121.09
2023-01-13T00:03:42.025Z,99113.00
2023-01-13T00:03:53.922Z,99131.94
2023-01-13T00:04:05.840Z,99120.53
2023-01-13T00:04:17.775Z,99121.06
2023-01-13T00:04:29.756Z,99103.78
2023-01-13T00:04:41.680Z,99118.41
2023-01-13T00:04:53.702Z,99110.81
2023-01-13T00:05:06.066Z,99124.03
2023-01-13T00:05:18.262Z,99115.81
2023-01-13T00:05:30.325Z,99122.56
2023-01-13T00:05:42.215Z,99112.06
2023-01-13T00:05:54.154Z,99117.44
2023-01-13T00:06:08.328Z,99115.81
2023-01-13T00:06:25.655Z,99115.72
2023-01-13T00:06:37.528Z,99112.66
2023-01-13T00:06:49.405Z,99117.44
2023-01-13T00:07:01.353Z,99119.09
2023-01-13T00:07:13.244Z,99151.84
2023-01-13T00:07:25.126Z,99111.78
2023-01-13T00:07:39.983Z,99109.16
2023-01-13T00:07:52.180Z,99106.50
2023-01-13T00:08:06.235Z,99110.09
2023-01-13T00:08:18.124Z,99110.09
2023-01-13T00:08:30.296Z,99112.84
2023-01-13T00:08:42.480Z,99112.06
2023-01-13T00:08:54.965Z,99105.19
2023-01-13T00:09:06.895Z,99108.28
2023-01-13T00:09:18.803Z,99113.59
2023-01-13T00:09:33.004Z,99104.06
2023-01-13T00:09:44.953Z,99107.44
2023-01-13T00:09:56.853Z,99110.03
2023-01-13T00:10:10.760Z,99112.50
2023-01-13T00:10:22.637Z,99118.41
2023-01-13T00:10:35.817Z,99121.63
2023-01-13T00:10:48.296Z,99103.47
2023-01-13T00:11:00.279Z,99111.78
2023-01-13T00:11:12.315Z,99098.84
2023-01-13T00:11:26.200Z,99100.47
2023-01-13T00:11:38.127Z,99113.47
2023-01-13T00:11:49.991Z,99094.31
2023-01-13T00:12:01.949Z,99106.72
2023-01-13T00:12:13.906Z,99110.09
2023-01-13T00:12:25.884Z,99111.72
2023-01-13T00:12:42.010Z,99099.53
2023-01-13T00:12:53.993Z,99109.94
2023-01-13T00:13:05.960Z,99101.22
2023-01-13T00:13:26.362Z,99105.66
2023-01-13T00:13:38.750Z,99110.09
2023-01-13T00:13:50.659Z,99117.22
2023-01-13T00:14:02.594Z,99111.22
2023-01-13T00:14:14.514Z,99116.97
2023-01-13T00:15:06.097Z,99109.34
2023-01-13T00:15:21.469Z,99110.31
2023-01-13T00:16:05.296Z,99116.09
2023-01-13T00:16:49.707Z,99112.28
2023-01-13T00:17:03.236Z,99112.28
2023-01-13T00:17:15.145Z,99118.63
2023-01-13T00:17:27.041Z,99111.00
2023-01-13T00:17:39.488Z,99133.59
2023-01-13T00:17:51.643Z,99120.59
2023-01-13T00:18:03.634Z,99107.44
2023-01-13T00:18:15.605Z,99120.53
2023-01-13T00:18:28.379Z,99094.59
2023-01-13T00:18:40.259Z,99079.63
2023-01-13T00:18:52.176Z,99104.63
2023-01-13T00:19:04.065Z,99114.91
2023-01-13T00:19:15.965Z,99109.03
2023-01-13T00:19:28.310Z,99124.03
2023-01-13T00:19:40.229Z,99147.34
2023-01-13T00:19:52.217Z,99091.72
2023-01-13T00:20:04.970Z,99112.22
2023-01-13T00:20:17.487Z,99114.19
2023-01-13T00:20:29.431Z,99121.09
2023-01-13T00:20:41.348Z,99131.63
2023-01-13T00:21:00.958Z,99092.50
2023-01-13T00:21:21.570Z,99096.22
2023-01-13T00:21:33.546Z,99120.25
2023-01-13T00:21:45.413Z,99121.09
2023-01-13T00:21:57.395Z,99124.88
2023-01-13T00:22:09.297Z,99109.84
2023-01-13T00:22:21.224Z,99107.56
2023-01-13T00:22:34.938Z,99092.72
2023-01-13T00:22:52.756Z,99114.34
2023-01-13T00:23:04.684Z,99104.91
2023-01-13T00:23:16.623Z,99133.00
2023-01-13T00:23:31.070Z,99121.06
2023-01-13T00:23:43.691Z,99114.13
2023-01-13T00:23:55.879Z,99095.47
2023-01-13T00:24:07.843Z,99100.25
2023-01-13T00:24:19.769Z,99093.50
2023-01-13T00:24:31.654Z,99105.75
2023-01-13T00:24:43.610Z,99110.25
2023-01-13T00:24:58.093Z,99085.03
2023-01-13T00:25:10.079Z,99111.22
2023-01-13T00:25:22.242Z,99106.03
2023-01-13T00:25:34.134Z,99092.09
2023-01-13T00:25:45.999Z,99108.13
2023-01-13T00:25:59.491Z,99102.72
2023-01-13T00:26:20.188Z,99105.59
2023-01-13T00:26:35.661Z,99111.72
2023-01-13T00:26:47.613Z,99110.03
2023-01-13T00:26:59.502Z,99110.94
2023-01-13T00:27:11.407Z,99115.09
2023-01-13T00:27:24.898Z,99095.19
2023-01-13T00:27:36.996Z,99118.47
2023-01-13T00:27:48.922Z,99115.44
2023-01-13T00:28:00.830Z,99119.81
2023-01-13T00:28:12.723Z,99106.59
2023-01-13T00:28:25.173Z,99081.19
2023-01-13T00:28:37.216Z,99136.50
2023-01-13T00:28:49.983Z,99117.44
2023-01-13T00:29:02.245Z,99108.69
2023-01-13T00:29:14.259Z,99080.34
2023-01-13T00:29:26.262Z,99113.78
2023-01-13T00:29:38.146Z,99106.84
2023-01-13T00:29:50.036Z,99117.28
2023-01-13T00:30:02.589Z,99105.75
2023-01-13T00:30:14.815Z,99098.84
2023-01-13T00:30:26.740Z,99104.75
2023-01-13T00:30:38.609Z,99114.72
2023-01-13T00:30:50.816Z,99086.03
2023-01-13T00:31:21.167Z,99124.09
2023-01-13T00:31:33.329Z,99095.63
2023-01-13T00:31:45.396Z,99107.00
2023-01-13T00:31:58.101Z,99108.75
2023-01-13T00:32:10.050Z,99104.75
2023-01-13T00:32:21.971Z,99093.91
2023-01-13T00:32:33.948Z,99111.50
2023-01-13T00:32:45.854Z,99115.78
2023-01-13T00:32:57.789Z,99106.16
2023-01-13T00:33:09.707Z,99105.31
2023-01-13T00:33:21.766Z,99102.66
2023-01-13T00:33:34.082Z,99106.75
2023-01-13T00:33:46.544Z,99095.34
2023-01-13T00:34:00.420Z,99104.03
2023-01-13T00:34:12.597Z,99098.84
2023-01-13T00:34:24.606Z,99096.31
2023-01-13T00:34:36.586Z,99088.31
2023-01-13T00:34:48.489Z,99088.22
2023-01-13T00:35:00.460Z,99080.00
2023-01-13T00:35:12.459Z,99099.59
2023-01-13T00:35:24.405Z,99098.00
2023-01-13T00:35:36.408Z,99083.88
2023-01-13T00:35:58.647Z,99099.00
2023-01-13T00:36:14.771Z,99093.63
2023-01-13T00:36:27.816Z,99100.66
2023-01-13T00:36:40.104Z,99083.38
2023-01-13T00:36:52.175Z,99074.69
2023-01-13T00:37:04.160Z,99092.78
2023-01-13T00:37:16.294Z,99087.72
2023-01-13T00:37:28.310Z,99092.09
2023-01-13T00:37:41.066Z,99096.66
2023-01-13T00:37:52.984Z,99098.63
2023-01-13T00:38:04.880Z,99090.81
2023-01-13T00:38:16.776Z,99092.78
2023-01-13T00:38:31.312Z,99082.38
2023-01-13T00:38:43.987Z,99089.41
2023-01-13T00:38:56.082Z,99090.09
2023-01-13T00:39:08.903Z,99087.44
2023-01-13T00:39:23.384Z,99096.84
2023-01-13T00:39:35.496Z,99100.78
2023-01-13T00:39:47.706Z,99092.84
2023-01-13T00:40:00.473Z,99095.41
2023-01-13T00:40:12.613Z,99092.78
2023-01-13T00:40:24.494Z,99087.72
2023-01-13T00:40:36.839Z,99079.84
2023-01-13T00:41:02.456Z,99081.94
2023-01-13T00:41:19.877Z,99077.59
2023-01-13T00:41:51.818Z,99084.63
2023-01-13T00:42:22.292Z,99063.19
2023-01-13T00:42:52.664Z,99092.09
2023-01-13T00:43:23.146Z,99080.56
2023-01-13T00:43:36.436Z,99085.88
2023-01-13T00:43:48.844Z,99085.88
2023-01-13T00:44:00.958Z,99081.63
2023-01-13T00:44:12.857Z,99077.09
2023-01-13T00:44:24.799Z,99082.38
2023-01-13T00:44:36.817Z,99085.81
2023-01-13T00:44:48.730Z,99084.84
2023-01-13T00:45:00.696Z,99090.81
2023-01-13T00:45:12.600Z,99093.56
2023-01-13T00:45:24.705Z,99069.72
2023-01-13T00:45:38.458Z,99078.44
2023-01-13T00:45:53.219Z,99078.72
2023-01-13T00:46:07.835Z,99082.72
2023-01-13T00:46:21.493Z,99086.09
2023-01-13T00:46:33.636Z,99064.50
2023-01-13T00:46:45.596Z,99089.34
2023-01-13T00:46:57.548Z,99073.38
2023-01-13T00:47:09.607Z,99053.41
2023-01-13T00:47:23.208Z,99064.72
2023-01-13T00:47:35.144Z,99071.84
2023-01-13T00:47:47.181Z,99076.63
2023-01-13T00:47:59.291Z,99076.63
2023-01-13T00:48:11.207Z,99071.81
2023-01-13T00:48:24.692Z,99070.28
2023-01-13T00:48:37.802Z,99068.44
2023-01-13T00:48:49.787Z,99087.59
2023-01-13T00:49:01.723Z,99061.28
2023-01-13T00:49:13.646Z,99068.81
2023-01-13T00:49:25.547Z,99066.97
2023-01-13T00:49:37.463Z,99046.34
2023-01-13T00:49:50.077Z,99060.72
2023-01-13T00:50:02.056Z,99061.13
2023-01-13T00:50:14.021Z,99072.31
2023-01-13T00:50:26.880Z,99067.88
2023-01-13T00:50:38.760Z,99078.16
2023-01-13T00:51:09.999Z,99068.25
2023-01-13T00:51:22.045Z,99057.47
2023-01-13T00:51:33.984Z,99073.38
2023-01-13T00:51:46.015Z,99066.63
2023-01-13T00:51:57.973Z,99065.78
2023-01-13T00:52:10.131Z,99071.53
2023-01-13T00:52:22.211Z,99053.97
2023-01-13T00:52:34.333Z,99067.75
2023-01-13T00:52:46.537Z,99066.81
2023-01-13T00:53:02.108Z,99051.03
2023-01-13T00:53:14.752Z,99064.28
2023-01-13T00:53:28.704Z,99064.50
2023-01-13T00:53:43.198Z,99059.59
2023-01-13T00:53:55.096Z,99052.84
2023-01-13T00:54:07.750Z,99061.19
2023-01-13T00:54:19.634Z,99060.22
2023-01-13T00:54:31.597Z,99059.19
2023-01-13T00:54:43.522Z,99060.22
2023-01-13T00:54:55.474Z,99058.47
2023-01-13T00:55:07.735Z,99055.81
2023-01-13T00:55:19.653Z,99059.25
2023-01-13T00:55:35.462Z,99064.50
2023-01-13T00:55:47.371Z,99060.13
2023-01-13T00:56:05.475Z,99057.34
2023-01-13T00:56:30.565Z,99069.31
2023-01-13T00:56:50.782Z,99070.97
2023-01-13T00:57:04.560Z,99068.31
2023-01-13T00:57:16.522Z,99057.06
2023-01-13T00:57:28.862Z,99070.19
2023-01-13T00:57:40.746Z,99058.59
2023-01-13T00:57:52.634Z,99056.63
2023-01-13T00:58:04.608Z,99067.19
2023-01-13T00:58:16.523Z,99055.72
2023-01-13T00:58:30.904Z,99064.72
2023-01-13T00:58:44.236Z,99070.00
2023-01-13T00:58:58.619Z,99049.88
2023-01-13T00:59:12.645Z,99049.88
2023-01-13T00:59:24.739Z,99060.56
2023-01-13T00:59:36.621Z,99063.94
2023-01-13T00:59:49.609Z,99075.56
2023-01-13T01:00:01.872Z,99044.41
2023-01-13T01:00:14.548Z,99069.59
2023-01-13T01:00:26.419Z,99074.63
2023-01-13T01:00:38.822Z,99071.97
2023-01-13T01:00:50.782Z,99067.09
2023-01-13T01:01:05.864Z,99069.31
2023-01-13T01:01:22.135Z,99049.72
2023-01-13T01:01:34.355Z,99066.34
2023-01-13T01:01:46.589Z,99061.75
2023-01-13T01:01:59.024Z,99055.50
2023-01-13T01:02:11.300Z,99059.69
2023-01-13T01:02:23.367Z,99059.88
2023-01-13T01:02:35.411Z,99063.25
2023-01-13T01:02:47.424Z,99055.94
2023-01-13T01:02:59.413Z,99060.16
2023-01-13T01:03:12.284Z,99055.34
2023-01-13T01:03:24.301Z,99057.53
2023-01-13T01:03:36.911Z,99058.44
2023-01-13T01:03:50.295Z,99049.88
2023-01-13T01:04:02.167Z,99053.47
2023-01-13T01:04:14.061Z,99034.25
2023-01-13T01:04:26.271Z,99057.38
2023-01-13T01:04:38.291Z,99054.66
2023-01-13T01:04:50.253Z,99053.13
2023-01-13T01:05:02.536Z,99036.84
2023-01-13T01:05:27.476Z,99055.94
2023-01-13T01:05:39.807Z,99062.56
2023-01-13T01:05:51.674Z,99055.06
2023-01-13T01:06:06.268Z,99044.38
2023-01-13T01:06:21.003Z,99049.72
2023-01-13T01:06:32.988Z,99060.91
2023-01-13T01:06:44.919Z,99070.56
2023-01-13T01:06:56.800Z,99060.22
2023-01-13T01:07:08.786Z,99055.06
2023-01-13T01:07:20.675Z,99056.91
2023-01-13T01:07:32.561Z,99051.63
2023-01-13T01:07:44.443Z,99058.72
2023-01-13T01:07:56.333Z,99070.84
2023-01-13T01:08:08.217Z,99051.84
2023-01-13T01:08:20.114Z,99046.66
2023-01-13T01:08:32.132Z,99052.13
2023-01-13T01:08:45.141Z,99050.31
2023-01-13T01:08:57.339Z,99036.38
2023-01-13T01:09:13.090Z,99051.56
2023-01-13T01:09:32.399Z,99058.16
2023-01-13T01:09:44.312Z,99068.84
2023-01-13T01:09:56.191Z,99068.19
2023-01-13T01:10:08.920Z,99058.59
2023-01-13T01:10:21.001Z,99060.44
2023-01-13T01:10:32.929Z,99056.00
2023-01-13T01:10:44.862Z,99060.44
2023-01-13T01:11:04.644Z,99048.47
2023-01-13T01:11:19.595Z,99059.72
2023-01-13T01:11:33.370Z,99031.31
2023-01-13T01:11:45.291Z,99076.88
2023-01-13T01:11:57.183Z,99051.56
2023-01-13T01:12:09.064Z,99067.59
2023-01-13T01:12:20.976Z,99078.22
2023-01-13T01:12:37.059Z,99058.88
2023-01-13T01:12:50.787Z,99056.34
2023-01-13T01:13:02.702Z,99059.19
2023-01-13T01:13:17.248Z,99073.09
2023-01-13T01:13:29.297Z,99059.09
2023-01-13T01:13:41.959Z,99065.22
2023-01-13T01:13:55.813Z,99069.31
2023-01-13T01:14:11.361Z,99073.38
2023-01-13T01:14:23.325Z,99056.63
2023-01-13T01:14:35.341Z,99064.53
2023-01-13T01:14:47.321Z,99065.47
2023-01-13T01:14:59.222Z,99062.09
2023-01-13T01:15:11.528Z,99068.59
2023-01-13T01:15:23.594Z,99078.44
2023-01-13T01:15:40.072Z,99082.00
2023-01-13T01:15:52.013Z,99042.97
2023-01-13T01:16:12.713Z,99070.63
2023-01-13T01:16:27.035Z,99067.75
2023-01-13T01:16:40.487Z,99068.03
2023-01-13T01:16:53.223Z,99055.81
2023-01-13T01:17:05.100Z,99064.50
2023-01-13T01:17:17.246Z,99079.28
2023-01-13T01:17:29.274Z,99074.91
2023-01-13T01:17:41.309Z,99063.59
2023-01-13T01:17:53.338Z,99073.38
2023-01-13T01:18:05.417Z,99070.84
2023-01-13T01:18:17.462Z,99070.00
2023-01-13T01:18:29.513Z,99078.03
2023-01-13T01:18:45.327Z,99070.22
2023-01-13T01:18:57.917Z,99075.06
2023-01-13T01:19:10.483Z,99062.84
2023-01-13T01:19:22.865Z,99083.66
2023-01-13T01:19:37.457Z,99072.53
2023-01-13T01:19:50.218Z,99078.34
2023-01-13T01:20:03.742Z,99056.41
2023-01-13T01:20:16.079Z,99076.47
2023-01-13T01:20:28.202Z,99074.97
2023-01-13T01:20:40.281Z,99069.66
2023-01-13T01:20:52.285Z,99067.59
2023-01-13T01:21:05.405Z,99066.22
2023-01-13T01:21:18.294Z,99074.91
2023-01-13T01:21:30.583Z,99075.84
2023-01-13T01:21:45.399Z,99077.53
2023-01-13T01:21:57.420Z,99077.03
2023-01-13T01:22:09.511Z,99066.78
2023-01-13T01:22:21.580Z,99068.72
2023-01-13T01:22:33.660Z,99068.59
2023-01-13T01:22:45.680Z,99064.72
2023-01-13T01:22:57.701Z,99081.13
2023-01-13T01:23:09.736Z,99075.25
2023-01-13T01:23:21.762Z,99072.47
2023-01-13T01:23:35.059Z,99082.94
2023-01-13T01:23:47.178Z,99063.13
2023-01-13T01:24:01.237Z,99066.97
2023-01-13T01:24:16.673Z,99073.94
2023-01-13T01:24:28.729Z,99061.41
2023-01-13T01:24:40.775Z,99110.84
2023-01-13T01:24:52.856Z,99076.91
2023-01-13T01:25:05.465Z,99067.75
2023-01-13T01:25:17.481Z,99074.78
2023-01-13T01:25:29.528Z,99100.31
2023-01-13T01:25:41.549Z,99068.31
2023-01-13T01:25:53.675Z,99068.31
2023-01-13T01:26:08.927Z,99071.81
2023-01-13T01:26:23.830Z,99077.19
2023-01-13T01:26:35.925Z,99085.00
2023-01-13T01:26:47.962Z,99063.53
2023-01-13T01:27:00.020Z,99068.72
2023-01-13T01:27:12.042Z,99068.44
2023-01-13T01:27:24.125Z,99075.34
2023-01-13T01:27:36.147Z,99061.56
2023-01-13T01:27:48.194Z,99063.72
2023-01-13T01:28:00.585Z,99073.38
2023-01-13T01:28:12.622Z,99066.22
2023-01-13T01:28:24.662Z,99070.75
2023-01-13T01:28:36.674Z,99054.25
2023-01-13T01:28:49.208Z,99061.00
2023-01-13T01:29:02.182Z,99073.38
2023-01-13T01:29:17.902Z,99068.16
2023-01-13T01:29:29.876Z,99056.16
2023-01-13T01:29:41.744Z,99067.31
2023-01-13T01:29:56.720Z,99046.84
2023-01-13T01:30:09.137Z,99060.34
2023-01-13T01:30:21.029Z,99079.56
2023-01-13T01:30:33.028Z,99073.38
2023-01-13T01:30:44.960Z,99088.16
2023-01-13T01:30:58.429Z,99069.78
2023-01-13T01:31:14.341Z,99072.66
2023-01-13T01:31:32.795Z,99070.84
2023-01-13T01:31:44.970Z,99064.66
2023-01-13T01:31:58.261Z,99087.44
2023-01-13T01:32:10.121Z,99072.38
2023-01-13T01:32:21.988Z,99069.78
2023-01-13T01:32:34.856Z,99057.09
2023-01-13T01:32:46.731Z,99077.84
2023-01-13T01:32:58.602Z,99076.31
2023-01-13T01:33:10.474Z,99074.03
2023-01-13T01:33:22.381Z,99075.16
2023-01-13T01:33:34.323Z,99066.44
2023-01-13T01:33:47.679Z,99070.94
2023-01-13T01:34:01.513Z,99068.38
2023-01-13T01:34:13.896Z,99063.13
2023-01-13T01:34:25.868Z,99071.91
2023-01-13T01:34:39.113Z,99069.44
2023-01-13T01:34:51.847Z,99066.06
2023-01-13T01:35:04.787Z,99073.75
2023-01-13T01:35:16.935Z,99065.16
2023-01-13T01:35:28.836Z,99070.09
2023-01-13T01:35:41.187Z,99064.91
2023-01-13T01:35:54.636Z,99082.31
2023-01-13T01:36:07.621Z,99076.47
2023-01-13T01:36:21.154Z,99077.50
2023-01-13T01:36:34.820Z,99072.31
2023-01-13T01:36:46.847Z,99068.03
2023-01-13T01:36:58.868Z,99080.31
2023-01-13T01:37:10.787Z,99077.78
2023-01-13T01:37:22.664Z,99069.06
2023-01-13T01:37:34.612Z,99081.16
2023-01-13T01:37:46.797Z,99081.03
2023-01-13T01:37:58.871Z,99077.50
2023-01-13T01:38:10.885Z,99085.50
2023-01-13T01:38:23.380Z,99073.41
2023-01-13T01:38:35.451Z,99063.88
2023-01-13T01:38:48.779Z,99077.00
2023-01-13T01:39:00.890Z,99064.00
2023-01-13T01:39:12.879Z,99057.63
2023-01-13T01:39:24.842Z,99074.78
2023-01-13T01:39:36.771Z,99089.72
2023-01-13T01:39:48.946Z,99072.31
2023-01-13T01:40:00.969Z,99051.66
2023-01-13T01:40:13.221Z,99066.38
2023-01-13T01:40:27.468Z,99059.31
2023-01-13T01:40:39.401Z,99064.50
2023-01-13T01:40:51.473Z,99063.00
2023-01-13T01:41:03.462Z,99072.47
2023-01-13T01:41:20.863Z,99073.81
2023-01-13T01:41:34.793Z,99069.56
2023-01-13T01:42:06.666Z,99070.44
2023-01-13T01:42:37.524Z,99066.34
2023-01-13T01:43:07.812Z,99069.84
2023-01-13T01:43:41.174Z,99072.94
2023-01-13T01:44:19.134Z,99069.66
2023-01-13T01:44:43.129Z,99071.28
2023-01-13T01:45:13.554Z,99072.13
2023-01-13T01:45:27.752Z,99077.91
2023-01-13T01:45:39.651Z,99077.00
2023-01-13T01:45:52.551Z,99076.38
2023-01-13T01:46:05.028Z,99076.47
2023-01-13T01:46:17.322Z,99068.47
2023-01-13T01:46:38.258Z,99064.00
2023-01-13T01:46:50.383Z,99081.41
2023-01-13T01:47:02.509Z,99070.91
2023-01-13T01:47:19.732Z,99059.63
2023-01-13T01:47:32.524Z,99056.13
2023-01-13T01:47:48.205Z,99062.16
2023-01-13T01:48:04.338Z,99064.91
2023-01-13T01:48:16.281Z,99039.69
2023-01-13T01:48:37.045Z,99086.63
2023-01-13T01:48:49.018Z,99064.19
2023-01-13T01:49:20.613Z,99067.50
2023-01-13T01:49:35.208Z,99056.16
2023-01-13T01:49:48.148Z,99056.31
2023-01-13T01:50:02.049Z,99068.44
2023-01-13T01:50:14.721Z,99067.75
2023-01-13T01:50:28.218Z,99072.97
2023-01-13T01:50:40.813Z,99072.19
2023-01-13T01:50:53.169Z,99072.88
2023-01-13T01:51:08.717Z,99066.84
2023-01-13T01:51:21.434Z,99071.31
2023-01-13T01:51:38.954Z,99068.81
2023-01-13T01:51:56.558Z,99068.94
2023-01-13T01:52:29.979Z,99059.97
2023-01-13T01:52:47.372Z,99070.44
2023-01-13T01:53:10.922Z,99062.47
2023-01-13T01:53:25.762Z,99065.59
2023-01-13T01:53:39.208Z,99063.88
2023-01-13T01:53:52.681Z,99070.81
2023-01-13T01:54:09.153Z,99054.25
2023-01-13T01:54:35.555Z,99062.84
2023-01-13T01:54:54.741Z,99057.41
2023-01-13T01:55:30.303Z,99059.69
2023-01-13T01:55:42.420Z,99069.16
2023-01-13T01:55:56.097Z,99061.50
2023-01-13T01:56:10.332Z,99063.53
2023-01-13T01:56:22.365Z,99063.53
2023-01-13T01:56:35.789Z,99072.31
2023-01-13T01:56:48.419Z,99061.28
2023-01-13T01:57:00.515Z,99071.16
2023-01-13T01:57:18.103Z,99067.63
2023-01-13T01:57:48.529Z,99056.41
2023-01-13T01:58:18.478Z,99072.44
2023-01-13T01:58:40.398Z,99065.63
2023-01-13T01:58:54.083Z,99062.50
2023-01-13T01:59:09.009Z,99065.16
2023-01-13T01:59:20.991Z,99069.56
2023-01-13T01:59:36.437Z,99062.19
2023-01-13T01:59:49.089Z,99072.44
2023-01-13T02:00:01.813Z,99067.38
2023-01-13T02:00:14.844Z,99056.84
2023-01-13T02:00:28.344Z,99062.03
2023-01-13T02:00:40.706Z,99068.41
2023-01-13T02:00:55.780Z,99071.25
2023-01-13T02:01:08.714Z,99065.16
2023-01-13T02:01:20.976Z,99055.53
2023-01-13T02:01:34.264Z,99069.44
2023-01-13T02:01:46.372Z,99062.28
2023-01-13T02:01:58.637Z,99070.16
2023-01-13T02:02:11.257Z,99052.63
2023-01-13T02:02:23.393Z,99062.75
2023-01-13T02:02:36.387Z,99049.03
2023-01-13T02:02:51.314Z,99062.03
2023-01-13T02:03:05.390Z,99065.81
2023-01-13T02:03:18.407Z,99058.28
2023-01-13T02:03:30.481Z,99061.00
2023-01-13T02:03:52.447Z,99060.63
2023-01-13T02:04:16.879Z,99067.22
2023-01-13T02:04:33.788Z,99063.84
2023-01-13T02:04:51.002Z,99067.38
2023-01-13T02:05:03.375Z,99066.44
2023-01-13T02:05:15.545Z,99069.06
2023-01-13T02:05:29.653Z,99054.38
2023-01-13T02:05:42.113Z,99061.97
2023-01-13T02:05:54.089Z,99056.78
2023-01-13T02:06:06.558Z,99059.44
2023-01-13T02:06:18.932Z,99056.91
2023-01-13T02:06:31.202Z,99065.66
2023-01-13T02:06:45.772Z,99070.88
2023-01-13T02:07:01.316Z,99069.97
2023-01-13T02:07:13.226Z,99065.56
2023-01-13T02:07:28.646Z,99056.31
2023-01-13T02:07:43.005Z,99060.88
2023-01-13T02:07:57.627Z,99054.91
2023-01-13T02:08:13.128Z,99058.13
2023-01-13T02:08:26.019Z,99054.75
2023-01-13T02:08:40.139Z,99056.31
2023-01-13T02:08:52.180Z,99065.56
2023-01-13T02:09:04.144Z,99062.13
2023-01-13T02:09:17.442Z,99056.22
2023-01-13T02:09:30.285Z,99046.66
2023-01-13T02:09:42.274Z,99057.00
2023-01-13T02:09:56.312Z,99051.28
2023-01-13T02:10:11.803Z,99036.66
2023-01-13T02:10:27.583Z,99050.44
2023-01-13T02:10:41.336Z,99060.75
2023-01-13T02:10:53.815Z,99048.78
2023-01-13T02:11:26.419Z,99050.34
2023-01-13T02:11:56.735Z,99046.06
2023-01-13T02:12:27.724Z,99044.25
2023-01-13T02:12:42.635Z,99054.75
2023-01-13T02:12:58.872Z,99054.75
2023-01-13T02:13:13.101Z,99053.94
2023-01-13T02:13:25.044Z,99040.88
2023-01-13T02:13:36.970Z,99043.47
2023-01-13T02:13:51.082Z,99048.78
2023-01-13T02:14:03.017Z,99044.50
2023-01-13T02:14:15.348Z,99037.50
2023-01-13T02:14:29.842Z,99047.75
2023-01-13T02:14:42.402Z,99049.31
2023-01-13T02:14:57.792Z,99044.00
2023-01-13T02:15:11.946Z,99052.84
2023-01-13T02:15:38.310Z,99052.56
2023-01-13T02:16:13.056Z,99046.72
2023-01-13T02:16:25.081Z,99037.88
2023-01-13T02:16:39.199Z,99039.81
2023-01-13T02:17:16.340Z,99037.88
2023-01-13T02:17:43.079Z,99039.56
2023-01-13T02:18:18.856Z,99034.06
2023-01-13T02:18:43.626Z,99037.97
2023-01-13T02:19:23.195Z,99041.53
2023-01-13T02:19:53.024Z,99029.31
2023-01-13T02:20:25.803Z,99031.97
2023-01-13T02:20:43.552Z,99025.09
2023-01-13T02:21:17.023Z,99035.13
2023-01-13T02:21:48.061Z,99009.78
2023-01-13T02:22:13.031Z,99030.31
2023-01-13T02:22:27.728Z,99023.41
2023-01-13T02:22:46.053Z,99034.63
2023-01-13T02:23:00.852Z,99024.19
2023-01-13T02:23:51.167Z,99032.69
2023-01-13T02:24:37.842Z,99037.19
2023-01-13T02:25:10.826Z,99028.34
2023-01-13T02:26:00.045Z,99034.41
2023-01-13T02:26:39.678Z,99038.06
2023-01-13T02:27:21.919Z,99025.94
2023-01-13T02:27:50.945Z,99048.59
2023-01-13T02:28:12.292Z,99024.28
2023-01-13T02:28:36.214Z,99032.69
2023-01-13T02:29:41.526Z,99037.00
2023-01-13T02:30:21.586Z,99021.00
2023-01-13T02:30:59.253Z,99028.63
2023-01-13T02:31:34.166Z,99028.63
2023-01-13T02:31:49.409Z,99035.88
2023-01-13T02:32:35.678Z,99031.59
2023-01-13T02:33:28.045Z,99030.09
2023-01-13T02:34:01.591Z,99025.81
2023-01-13T02:34:25.120Z,99030.66
2023-01-13T02:34:42.879Z,99036.22
2023-01-13T02:35:37.748Z,99029.25
2023-01-13T02:36:02.571Z,99034.53
2023-01-13T02:36:29.805Z,99032.03
2023-01-13T02:36:47.553Z,99031.16
2023-01-13T02:37:07.649Z,99041.56
2023-01-13T02:37:29.836Z,99029.47
2023-01-13T02:37:43.981Z,99034.81
2023-01-13T02:37:59.592Z,99040.78
2023-01-13T02:38:13.831Z,99036.00
2023-01-13T02:38:34.584Z,99031.47
2023-01-13T02:38:52.213Z,99038.34
2023-01-13T02:39:16.965Z,99034.63
2023-01-13T02:39:37.098Z,99035.38
2023-01-13T02:39:59.480Z,99030.75
2023-01-13T02:40:31.522Z,99028.06
2023-01-13T02:40:58.436Z,99044.25
2023-01-13T02:41:40.447Z,99013.75
2023-01-13T02:42:32.719Z,99036.78
2023-01-13T02:43:15.429Z,99030.47
2023-01-13T02:43:54.987Z,99030.47
2023-01-13T02:44:10.533Z,99025.81
2023-01-13T02:44:32.447Z,99023.59
2023-01-13T02:44:49.774Z,99024.44
2023-01-13T02:45:09.810Z,99024.66
2023-01-13T02:45:30.655Z,99025.66
2023-01-13T02:46:01.686Z,99032.63
2023-01-13T02:46:29.944Z,99031.75
2023-01-13T02:46:59.349Z,99028.16
2023-01-13T02:47:22.659Z,99028.63
2023-01-13T02:47:39.292Z,99030.25
2023-01-13T02:47:55.758Z,99034.78
2023-01-13T02:48:10.829Z,99026.09
2023-01-13T02:48:25.299Z,99028.97
2023-01-13T02:48:39.657Z,99033.22
2023-01-13T02:48:54.681Z,99033.47
2023-01-13T02:49:13.792Z,99031.53
2023-01-13T02:49:37.677Z,99028.97
2023-01-13T02:49:55.803Z,99027.09
2023-01-13T02:50:21.342Z,99034.13
2023-01-13T02:50:40.931Z,99016.84
2023-01-13T02:51:09.706Z,99019.44
2023-01-13T02:51:26.800Z,99028.78
2023-01-13T02:51:40.935Z,99017.88
2023-01-13T02:52:00.078Z,99028.06
2023-01-13T02:52:25.437Z,99020.41
2023-01-13T02:52:45.724Z,99035.66
2023-01-13T02:53:07.588Z,99012.94
2023-01-13T02:53:29.215Z,99013.28
2023-01-13T02:53:44.024Z,99016.13
2023-01-13T02:54:04.649Z,99027.66
2023-01-13T02:54:22.485Z,99022.59
2023-01-13T02:54:37.283Z,99018.09
2023-01-13T02:54:55.291Z,99014.03
2023-01-13T02:55:50.783Z,99020.91
2023-01-13T02:56:06.325Z,99017.53
2023-01-13T02:56:20.814Z,99019.34
2023-01-13T02:56:37.316Z,99020.34
2023-01-13T02:56:51.092Z,99030.88
2023-01-13T02:57:06.549Z,99023.84
2023-01-13T02:57:20.792Z,99020.34
2023-01-13T02:57:35.579Z,99026.59
2023-01-13T02:57:48.541Z,99002.25
2023-01-13T02:58:04.145Z,99012.66
2023-01-13T02:58:21.109Z,99020.47
2023-01-13T02:58:36.195Z,99015.41
2023-01-13T02:58:49.046Z,99021.47
2023-01-13T02:59:02.180Z,99021.47
2023-01-13T02:59:14.363Z,99012.75
2023-01-13T02:59:27.817Z,99025.94
2023-01-13T02:59:41.388Z,99014.09
2023-01-13T02:59:55.557Z,99020.13
2023-01-13T03:00:10.519Z,99019.34
2023-01-13T03:00:23.384Z,99021.34
2023-01-13T03:00:37.439Z,99014.38
2023-01-13T03:00:50.072Z,99023.84
2023-01-13T03:01:04.849Z,99023.44
2023-01-13T03:01:17.903Z,99015.50
2023-01-13T03:01:29.974Z,99014.72
2023-01-13T03:01:45.194Z,99016.41
2023-01-13T03:02:00.135Z,99009.53
2023-01-13T03:02:16.546Z,99009.81
2023-01-13T03:02:28.807Z,99000.78
2023-01-13T03:02:40.820Z,99010.91
2023-01-13T03:02:52.918Z,99018.00
2023-01-13T03:03:04.937Z,99014.50
2023-01-13T03:03:16.891Z,99020.41